Time;durP1;ratioP1;P1;durP2;ratioP2;P2;SDS_P1;SDS_P2;PMS_P1;PMS_P2;Temp;Humidity;BMP_temperature;BMP_pressure;BME280_temperature;BME280_humidity;BME280_pressure;Samples;Min_cycle;Max_cycle;Signal;HPM_P1;HPM_P2
2023/02/01 00:02:23;;;;;;;;;;;0.80;84.20;;;;;;5006248;28;82067;-37
2023/02/01 00:04:49;;;;;;;;;;;0.80;84.10;;;;;;5006291;28;82562;-37
2023/02/01 00:07:14;;;;;;;;;;;0.80;84.20;;;;;;5005881;28;82982;-37
2023/02/01 00:09:40;;;;;;;;;;;0.80;84.10;;;;;;5006071;28;82033;-37
2023/02/01 00:12:05;;;;;;;;;;;0.80;84.30;;;;;;5008127;28;82926;-37
2023/02/01 00:14:37;;;;;;;;;;;0.70;84.10;;;;;;5005827;28;81992;-37
2023/02/01 00:17:07;;;;;;;;;;;0.80;84.20;;;;;;5005388;28;82331;-37
2023/02/01 00:19:33;;;;;;;;;;;0.80;84.10;;;;;;5005327;28;82994;-37
2023/02/01 00:21:58;;;;;;;;;;;0.80;84.10;;;;;;5005863;28;82186;-37
2023/02/01 00:24:24;;;;;;;;;;;0.80;84.10;;;;;;5005917;28;82404;-37
2023/02/01 00:26:49;;;;;;;;;;;0.80;84.00;;;;;;5005904;28;83206;-37
2023/02/01 00:29:16;;;;;;;;;;;0.80;84.10;;;;;;5006088;28;81256;-37
2023/02/01 00:31:42;;;;;;;;;;;0.80;84.10;;;;;;5005865;28;81836;-37
2023/02/01 00:34:11;;;;;;;;;;;0.80;84.00;;;;;;5007944;28;82041;-37
2023/02/01 00:36:36;;;;;;;;;;;0.80;83.90;;;;;;5004773;28;83898;-37
2023/02/01 00:39:02;;;;;;;;;;;0.70;84.10;;;;;;5008442;28;82880;-37
2023/02/01 00:41:27;;;;;;;;;;;0.80;84.20;;;;;;5009095;28;82319;-37
2023/02/01 00:43:53;;;;;;;;;;;0.70;84.10;;;;;;5009010;28;83718;-37
2023/02/01 00:46:19;;;;;;;;;;;0.80;84.10;;;;;;5008937;28;84475;-37
2023/02/01 00:48:45;;;;;;;;;;;0.80;84.10;;;;;;5008716;28;81985;-37
2023/02/01 00:51:15;;;;;;;;;;;0.70;84.00;;;;;;5009062;28;82493;-37
2023/02/01 00:53:41;;;;;;;;;;;0.80;84.00;;;;;;5011763;28;82002;-37
2023/02/01 00:56:07;;;;;;;;;;;0.70;84.10;;;;;;5008807;28;83044;-37
2023/02/01 00:58:33;;;;;;;;;;;0.70;84.10;;;;;;5008797;28;83356;-37
2023/02/01 01:01:02;;;;;;;;;;;0.80;84.10;;;;;;5008182;28;82970;-37
2023/02/01 01:03:29;;;;;;;;;;;0.80;84.00;;;;;;5008781;28;83261;-37
2023/02/01 01:05:56;;;;;;;;;;;0.80;84.00;;;;;;5008323;28;82920;-37
2023/02/01 01:08:22;;;;;;;;;;;0.70;84.00;;;;;;5008731;28;81832;-37
2023/02/01 01:10:49;;;;;;;;;;;0.70;84.00;;;;;;5008686;28;82459;-37
2023/02/01 01:13:14;;;;;;;;;;;0.70;84.10;;;;;;5008393;28;84338;-37
2023/02/01 01:15:40;;;;;;;;;;;0.70;84.00;;;;;;5011162;28;82082;-37
2023/02/01 01:18:06;;;;;;;;;;;0.70;84.00;;;;;;5008805;28;82245;-37
2023/02/01 01:20:34;;;;;;;;;;;0.70;84.10;;;;;;5008498;28;82006;-37
2023/02/01 01:22:59;;;;;;;;;;;0.70;84.10;;;;;;5008399;28;82329;-37
2023/02/01 01:25:25;;;;;;;;;;;0.60;84.00;;;;;;5007536;28;85265;-37
2023/02/01 01:27:50;;;;;;;;;;;0.70;84.10;;;;;;5008433;28;82085;-37
2023/02/01 01:30:16;;;;;;;;;;;0.70;84.20;;;;;;5008496;28;82447;-37
2023/02/01 01:32:41;;;;;;;;;;;0.70;84.10;;;;;;5008175;28;82838;-37
2023/02/01 01:35:07;;;;;;;;;;;0.70;84.00;;;;;;5008668;28;81974;-37
2023/02/01 01:37:33;;;;;;;;;;;0.70;84.10;;;;;;5010804;28;82702;-37
2023/02/01 01:39:58;;;;;;;;;;;0.70;84.00;;;;;;5008239;28;82121;-37
2023/02/01 01:42:24;;;;;;;;;;;0.70;84.00;;;;;;5008974;28;82326;-37
2023/02/01 01:45:08;;;;;;;;;;;0.60;84.10;;;;;;5008191;28;82984;-37
2023/02/01 01:47:41;;;;;;;;;;;0.70;84.10;;;;;;5008192;28;82064;-37
2023/02/01 01:50:09;;;;;;;;;;;0.70;84.00;;;;;;5007396;28;82965;-37
2023/02/01 01:52:35;;;;;;;;;;;0.70;84.10;;;;;;5007818;28;85125;-37
2023/02/01 01:55:00;;;;;;;;;;;0.70;84.00;;;;;;5008130;28;82061;-37
2023/02/01 01:57:35;;;;;;;;;;;0.60;84.00;;;;;;5008225;28;82011;-37
2023/02/01 02:00:07;;;;;;;;;;;0.60;84.10;;;;;;5010363;28;82823;-37
2023/02/01 02:02:32;;;;;;;;;;;0.70;84.00;;;;;;5007676;28;83970;-37
2023/02/01 02:04:58;;;;;;;;;;;0.60;84.00;;;;;;5008047;28;82923;-37
2023/02/01 02:07:26;;;;;;;;;;;0.70;84.00;;;;;;5008244;28;81308;-37
2023/02/01 02:09:52;;;;;;;;;;;0.70;84.00;;;;;;5007683;28;82427;-37
2023/02/01 02:12:17;;;;;;;;;;;0.60;84.00;;;;;;5007410;28;83085;-37
2023/02/01 02:14:43;;;;;;;;;;;0.70;84.10;;;;;;5007104;28;82901;-37
2023/02/01 02:17:18;;;;;;;;;;;0.60;84.10;;;;;;5007310;28;83416;-37
2023/02/01 02:20:11;;;;;;;;;;;0.70;84.00;;;;;;5007645;28;82972;-37
2023/02/01 02:22:55;;;;;;;;;;;0.60;83.90;;;;;;5010279;28;81936;-37
2023/02/01 02:25:21;;;;;;;;;;;0.60;84.00;;;;;;5007404;28;82921;-37
2023/02/01 02:27:59;;;;;;;;;;;0.60;84.00;;;;;;5007684;28;82361;-37
2023/02/01 02:30:33;;;;;;;;;;;0.60;84.10;;;;;;5007639;28;82338;-37
2023/02/01 02:32:59;;;;;;;;;;;0.60;84.00;;;;;;5008092;28;82216;-37
2023/02/01 02:35:30;;;;;;;;;;;0.60;84.00;;;;;;5007497;28;82120;-37
2023/02/01 02:38:12;;;;;;;;;;;0.60;84.00;;;;;;5007675;28;82337;-37
2023/02/01 02:40:45;;;;;;;;;;;0.60;84.00;;;;;;5006701;28;84115;-37
2023/02/01 02:49:12;;;;;;;;;;;0.60;84.10;;;;;;5006055;28;81933;-37
2023/02/01 02:54:47;;;;;;;;;;;0.60;84.10;;;;;;5004008;28;82427;-37
2023/02/01 03:05:33;;;;;;;;;;;0.60;84.00;;;;;;5005136;28;81804;-37
2023/02/01 03:08:05;;;;;;;;;;;0.60;84.00;;;;;;5009028;28;83124;-37
2023/02/01 03:10:30;;;;;;;;;;;0.60;84.00;;;;;;5006995;28;82231;-37
2023/02/01 03:13:01;;;;;;;;;;;0.60;84.00;;;;;;5006783;28;82435;-37
2023/02/01 03:15:31;;;;;;;;;;;0.60;83.90;;;;;;5006316;28;83167;-37
2023/02/01 03:17:57;;;;;;;;;;;0.60;84.00;;;;;;5006538;28;81967;-37
2023/02/01 03:20:23;;;;;;;;;;;0.60;83.90;;;;;;5006786;28;82445;-37
2023/02/01 03:22:51;;;;;;;;;;;0.60;84.00;;;;;;5006545;28;83263;-37
2023/02/01 03:25:26;;;;;;;;;;;0.60;84.00;;;;;;5005529;28;81345;-38
2023/02/01 03:27:54;;;;;;;;;;;0.60;83.90;;;;;;5006556;28;81692;-37
2023/02/01 03:30:25;;;;;;;;;;;0.60;83.80;;;;;;5008931;28;82034;-37
2023/02/01 03:33:01;;;;;;;;;;;0.60;83.80;;;;;;5005772;28;83982;-36
2023/02/01 03:35:43;;;;;;;;;;;0.60;83.90;;;;;;5006127;28;84317;-39
2023/02/01 03:38:08;;;;;;;;;;;0.60;83.80;;;;;;5006129;28;82663;-39
2023/02/01 03:40:36;;;;;;;;;;;0.60;83.80;;;;;;5006611;28;82366;-39
2023/02/01 03:43:04;;;;;;;;;;;0.50;83.80;;;;;;5006254;28;83213;-39
2023/02/01 03:45:59;;;;;;;;;;;0.50;83.80;;;;;;5006169;28;81961;-39
2023/02/01 03:48:27;;;;;;;;;;;0.50;83.80;;;;;;5000901;28;82592;-37
2023/02/01 03:50:54;;;;;;;;;;;0.60;83.80;;;;;;5006629;28;82295;-38
2023/02/01 03:53:22;;;;;;;;;;;0.60;83.80;;;;;;5008881;28;82177;-39
2023/02/01 03:55:48;;;;;;;;;;;0.50;83.80;;;;;;5006097;28;82971;-39
2023/02/01 03:58:15;;;;;;;;;;;0.50;83.90;;;;;;5005639;28;82924;-39
2023/02/01 04:00:43;;;;;;;;;;;0.50;83.80;;;;;;5006088;28;82539;-39
2023/02/01 04:03:09;;;;;;;;;;;0.50;83.80;;;;;;5005531;28;83467;-39
2023/02/01 04:05:35;;;;;;;;;;;0.50;83.90;;;;;;5006274;28;81980;-39
2023/02/01 04:08:00;;;;;;;;;;;0.50;83.80;;;;;;5005883;28;82387;-39
2023/02/01 04:10:26;;;;;;;;;;;0.50;83.70;;;;;;5005938;28;82985;-39
2023/02/01 04:12:52;;;;;;;;;;;0.50;83.80;;;;;;5005688;28;81997;-39
2023/02/01 04:15:17;;;;;;;;;;;0.50;83.70;;;;;;5008695;28;82161;-39
2023/02/01 04:17:43;;;;;;;;;;;0.50;83.90;;;;;;5005711;28;81855;-39
2023/02/01 04:20:09;;;;;;;;;;;0.50;83.80;;;;;;5005985;28;82767;-40
2023/02/01 04:22:34;;;;;;;;;;;0.50;83.70;;;;;;5005068;28;83491;-39
2023/02/01 04:25:00;;;;;;;;;;;0.50;83.70;;;;;;5005853;28;81962;-39
2023/02/01 04:27:25;;;;;;;;;;;0.50;83.60;;;;;;5005735;28;84049;-39
2023/02/01 04:29:51;;;;;;;;;;;0.50;83.60;;;;;;5005749;28;82957;-39
2023/02/01 04:32:17;;;;;;;;;;;0.50;83.60;;;;;;5005653;28;82129;-39
2023/02/01 04:34:42;;;;;;;;;;;0.60;83.60;;;;;;5005666;28;82546;-39
2023/02/01 04:37:08;;;;;;;;;;;0.50;83.60;;;;;;5008217;28;83017;-39
2023/02/01 04:39:34;;;;;;;;;;;0.50;83.50;;;;;;5006181;28;82823;-37
2023/02/01 04:41:59;;;;;;;;;;;0.50;83.60;;;;;;5003958;28;86376;-39
2023/02/01 04:44:25;;;;;;;;;;;0.50;83.50;;;;;;5005673;28;82547;-39
2023/02/01 04:46:50;;;;;;;;;;;0.50;83.50;;;;;;5004979;28;82964;-39
2023/02/01 04:49:16;;;;;;;;;;;0.50;83.70;;;;;;5005005;28;83235;-37
2023/02/01 04:51:41;;;;;;;;;;;0.50;83.60;;;;;;5003912;28;82150;-39
2023/02/01 04:54:07;;;;;;;;;;;0.50;83.70;;;;;;5005645;28;82444;-39
2023/02/01 04:56:34;;;;;;;;;;;0.50;83.50;;;;;;5005198;28;83153;-39
2023/02/01 04:59:00;;;;;;;;;;;0.50;83.60;;;;;;5007883;28;81750;-39
2023/02/01 05:01:25;;;;;;;;;;;0.50;83.50;;;;;;5005491;28;83184;-39
2023/02/01 05:03:51;;;;;;;;;;;0.50;83.50;;;;;;5005620;28;81317;-37
2023/02/01 05:06:16;;;;;;;;;;;0.50;83.60;;;;;;5005310;28;81959;-39
2023/02/01 05:08:42;;;;;;;;;;;0.50;83.50;;;;;;5005069;28;83000;-39
2023/02/01 05:13:47;;;;;;;;;;;0.50;83.50;;;;;;5004837;28;82916;-39
2023/02/01 05:13:53;;;;;;;;;;;0.50;83.50;;;;;;5005080;28;83713;-39
2023/02/01 05:16:19;;;;;;;;;;;0.50;83.50;;;;;;5004227;28;82981;-39
2023/02/01 05:18:44;;;;;;;;;;;0.50;83.60;;;;;;5007503;28;82098;-39
2023/02/01 05:21:10;;;;;;;;;;;0.50;83.50;;;;;;5005200;28;82923;-39
2023/02/01 05:24:09;;;;;;;;;;;0.50;83.60;;;;;;5005791;28;82104;-39
2023/02/01 05:26:21;;;;;;;;;;;0.50;83.60;;;;;;5008307;28;82816;-39
2023/02/01 05:28:46;;;;;;;;;;;0.50;83.50;;;;;;5008668;28;82272;-39
2023/02/01 05:31:11;;;;;;;;;;;0.50;83.40;;;;;;5008660;28;82076;-39
2023/02/01 05:33:37;;;;;;;;;;;0.50;83.50;;;;;;5008699;28;82427;-39
2023/02/01 05:36:03;;;;;;;;;;;0.50;83.50;;;;;;5007642;28;83220;-37
2023/02/01 05:38:29;;;;;;;;;;;0.40;83.50;;;;;;5008353;28;81749;-36
2023/02/01 05:40:55;;;;;;;;;;;0.50;83.50;;;;;;5010852;28;82641;-36
2023/02/01 05:43:20;;;;;;;;;;;0.50;83.50;;;;;;5008257;28;82624;-37
2023/02/01 05:45:46;;;;;;;;;;;0.40;83.50;;;;;;5008161;28;82561;-37
2023/02/01 05:48:11;;;;;;;;;;;0.50;83.50;;;;;;5007995;28;83121;-36
2023/02/01 05:50:37;;;;;;;;;;;0.40;83.40;;;;;;5007949;28;82084;-39
2023/02/01 05:53:02;;;;;;;;;;;0.40;83.60;;;;;;5008481;28;83251;-39
2023/02/01 05:55:28;;;;;;;;;;;0.50;83.50;;;;;;5007929;28;82897;-39
2023/02/01 05:57:53;;;;;;;;;;;0.50;83.50;;;;;;5008150;28;82069;-39
2023/02/01 06:00:19;;;;;;;;;;;0.40;83.50;;;;;;5007254;28;82940;-39
2023/02/01 06:02:44;;;;;;;;;;;0.50;83.40;;;;;;5010244;28;85544;-39
2023/02/01 06:05:10;;;;;;;;;;;0.50;83.40;;;;;;5008143;28;82770;-39
2023/02/01 06:07:36;;;;;;;;;;;0.40;83.50;;;;;;5007276;28;83577;-39
2023/02/01 06:10:01;;;;;;;;;;;0.40;83.50;;;;;;5007534;28;82025;-39
2023/02/01 06:12:27;;;;;;;;;;;0.40;83.60;;;;;;5007717;28;83047;-39
2023/02/01 06:14:53;;;;;;;;;;;0.40;83.50;;;;;;5007152;28;83262;-39
2023/02/01 06:17:19;;;;;;;;;;;0.40;83.50;;;;;;5007702;28;81426;-39
2023/02/01 06:19:44;;;;;;;;;;;0.40;83.30;;;;;;5007691;28;81914;-39
2023/02/01 06:22:10;;;;;;;;;;;0.40;83.40;;;;;;5007683;28;82799;-39
2023/02/01 06:24:35;;;;;;;;;;;0.40;83.50;;;;;;5009762;28;82957;-39
2023/02/01 06:27:01;;;;;;;;;;;0.40;83.40;;;;;;5007400;28;82967;-39
2023/02/01 06:29:26;;;;;;;;;;;0.40;83.50;;;;;;5007401;28;82187;-39
2023/02/01 06:31:52;;;;;;;;;;;0.40;83.50;;;;;;5007529;28;81963;-39
2023/02/01 06:34:18;;;;;;;;;;;0.40;83.40;;;;;;5007385;28;83232;-39
2023/02/01 06:36:43;;;;;;;;;;;0.40;83.40;;;;;;5007430;28;82296;-39
2023/02/01 06:39:09;;;;;;;;;;;0.40;83.30;;;;;;5007509;28;81890;-39
2023/02/01 06:41:34;;;;;;;;;;;0.40;83.50;;;;;;5008028;28;82211;-39
2023/02/01 06:44:00;;;;;;;;;;;0.40;83.30;;;;;;5007322;28;82005;-39
2023/02/01 06:46:26;;;;;;;;;;;0.40;83.30;;;;;;5009813;28;82414;-39
2023/02/01 06:48:51;;;;;;;;;;;0.40;83.40;;;;;;5006477;28;83154;-39
2023/02/01 06:51:27;;;;;;;;;;;0.40;83.40;;;;;;5007292;28;82595;-39
2023/02/01 06:53:53;;;;;;;;;;;0.40;83.40;;;;;;5006652;28;84336;-39
2023/02/01 06:56:18;;;;;;;;;;;0.40;83.50;;;;;;5006985;28;81691;-39
2023/02/01 06:58:44;;;;;;;;;;;0.40;83.40;;;;;;5006684;28;83843;-39
2023/02/01 07:01:10;;;;;;;;;;;0.40;83.50;;;;;;5006914;28;82823;-39
2023/02/01 07:03:36;;;;;;;;;;;0.40;83.50;;;;;;5006841;28;82013;-39
2023/02/01 07:06:02;;;;;;;;;;;0.40;83.50;;;;;;5009817;28;83924;-39
2023/02/01 07:08:27;;;;;;;;;;;0.40;83.40;;;;;;5006659;28;82063;-39
2023/02/01 07:10:53;;;;;;;;;;;0.40;83.30;;;;;;5006866;28;82312;-39
2023/02/01 07:13:19;;;;;;;;;;;0.40;83.30;;;;;;5005739;28;83861;-39
2023/02/01 07:15:46;;;;;;;;;;;0.30;83.40;;;;;;5006202;28;82690;-39
2023/02/01 07:18:14;;;;;;;;;;;0.40;83.40;;;;;;5006828;28;82349;-37
2023/02/01 07:20:39;;;;;;;;;;;0.40;83.40;;;;;;5006345;28;83232;-37
2023/02/01 07:23:05;;;;;;;;;;;0.40;83.50;;;;;;5006696;28;82207;-37
2023/02/01 07:25:30;;;;;;;;;;;0.40;83.30;;;;;;5007005;28;82353;-39
2023/02/01 07:27:56;;;;;;;;;;;0.40;83.30;;;;;;5009263;28;83006;-39
2023/02/01 07:30:22;;;;;;;;;;;0.40;83.60;;;;;;5007003;28;81628;-39
2023/02/01 07:32:47;;;;;;;;;;;0.40;83.40;;;;;;5006361;28;84684;-39
2023/02/01 07:35:13;;;;;;;;;;;0.40;83.40;;;;;;5006375;28;82151;-39
2023/02/01 07:37:39;;;;;;;;;;;0.40;83.60;;;;;;5005772;28;82888;-39
2023/02/01 07:40:05;;;;;;;;;;;0.40;83.40;;;;;;5006304;28;82909;-39
2023/02/01 07:42:31;;;;;;;;;;;0.40;83.50;;;;;;5006250;28;82644;-39
2023/02/01 07:44:57;;;;;;;;;;;0.40;83.50;;;;;;5006551;28;82509;-37
2023/02/01 07:47:22;;;;;;;;;;;0.40;83.40;;;;;;5005416;28;84484;-39
2023/02/01 07:49:48;;;;;;;;;;;0.40;83.30;;;;;;5009112;28;82110;-39
2023/02/01 07:52:15;;;;;;;;;;;0.40;83.20;;;;;;5006179;28;82189;-39
2023/02/01 07:54:41;;;;;;;;;;;0.40;83.50;;;;;;5006514;28;81310;-39
2023/02/01 07:57:08;;;;;;;;;;;0.40;83.70;;;;;;5006171;28;82288;-39
2023/02/01 07:59:34;;;;;;;;;;;0.40;83.50;;;;;;5005749;28;84424;-39
2023/02/01 08:01:59;;;;;;;;;;;0.40;83.60;;;;;;5005473;28;83077;-39
2023/02/01 08:04:25;;;;;;;;;;;0.30;83.60;;;;;;5006128;28;83326;-39
2023/02/01 08:06:50;;;;;;;;;;;0.30;83.70;;;;;;5005960;28;83022;-39
2023/02/01 08:09:16;;;;;;;;;;;0.30;83.60;;;;;;5006338;28;81999;-39
2023/02/01 08:11:41;;;;;;;;;;;0.30;83.80;;;;;;5008705;28;82072;-39
2023/02/01 08:14:07;;;;;;;;;;;0.30;83.60;;;;;;5005539;28;82365;-39
2023/02/01 08:16:34;;;;;;;;;;;0.30;83.70;;;;;;5005532;28;82226;-39
2023/02/01 08:19:00;;;;;;;;;;;0.30;83.70;;;;;;5006143;28;83795;-39
2023/02/01 08:21:36;;;;;;;;;;;0.30;83.70;;;;;;5006017;28;82131;-39
2023/02/01 08:24:02;;;;;;;;;;;0.30;83.80;;;;;;5005937;28;83099;-39
2023/02/01 08:26:28;;;;;;;;;;;0.30;83.70;;;;;;5005050;28;83992;-39
2023/02/01 08:28:59;;;;;;;;;;;0.30;83.80;;;;;;5005649;28;82225;-39
2023/02/01 08:31:25;;;;;;;;;;;0.30;83.90;;;;;;5005698;28;83936;-37
2023/02/01 08:33:52;;;;;;;;;;;0.30;83.80;;;;;;5008200;28;82968;-39
2023/02/01 08:36:17;;;;;;;;;;;0.30;83.50;;;;;;5005883;28;83549;-39
2023/02/01 08:38:43;;;;;;;;;;;0.40;83.70;;;;;;5005305;28;84061;-39
2023/02/01 08:41:10;;;;;;;;;;;0.30;83.60;;;;;;5005494;28;82024;-39
2023/02/01 08:43:35;;;;;;;;;;;0.30;83.80;;;;;;5005838;28;83703;-39
2023/02/01 08:46:01;;;;;;;;;;;0.30;83.80;;;;;;5005444;28;83537;-39
2023/02/01 08:48:26;;;;;;;;;;;0.30;83.80;;;;;;5005539;28;82092;-39
2023/02/01 08:50:52;;;;;;;;;;;0.30;83.80;;;;;;5005067;28;82928;-39
2023/02/01 08:53:17;;;;;;;;;;;0.30;83.70;;;;;;5005397;28;83191;-39
2023/02/01 08:55:44;;;;;;;;;;;0.30;83.70;;;;;;5008173;28;82028;-39
2023/02/01 08:58:10;;;;;;;;;;;0.30;83.80;;;;;;5005381;28;83111;-39
2023/02/01 09:00:35;;;;;;;;;;;0.30;84.00;;;;;;5008639;28;82209;-39
2023/02/01 09:03:01;;;;;;;;;;;0.30;83.80;;;;;;5009105;28;82367;-39
2023/02/01 09:05:28;;;;;;;;;;;0.30;83.80;;;;;;5008733;28;83208;-37
2023/02/01 09:07:53;;;;;;;;;;;0.30;84.00;;;;;;5009102;28;81356;-39
2023/02/01 09:10:19;;;;;;;;;;;0.30;83.80;;;;;;5008871;28;81931;-39
2023/02/01 09:12:44;;;;;;;;;;;0.30;83.90;;;;;;5008537;28;83082;-39
2023/02/01 09:15:10;;;;;;;;;;;0.30;83.90;;;;;;5010750;28;83345;-39
2023/02/01 09:17:35;;;;;;;;;;;0.30;83.90;;;;;;5008580;28;83080;-39
2023/02/01 09:20:01;;;;;;;;;;;0.40;84.00;;;;;;5008458;28;82104;-39
2023/02/01 09:22:26;;;;;;;;;;;0.40;83.90;;;;;;5008703;28;82157;-39
2023/02/01 09:24:53;;;;;;;;;;;0.40;83.70;;;;;;5008559;28;83141;-39
2023/02/01 09:27:18;;;;;;;;;;;0.40;83.70;;;;;;5007967;28;82090;-39
2023/02/01 09:29:44;;;;;;;;;;;0.40;83.80;;;;;;5008529;28;82058;-37
2023/02/01 09:32:09;;;;;;;;;;;0.40;83.80;;;;;;5008887;28;81318;-37
2023/02/01 09:34:35;;;;;;;;;;;0.40;83.70;;;;;;5007224;28;82128;-37
2023/02/01 09:37:01;;;;;;;;;;;0.50;83.80;;;;;;5010755;28;84310;-39
2023/02/01 09:39:29;;;;;;;;;;;0.50;83.60;;;;;;5007679;28;83040;-39
2023/02/01 09:42:07;;;;;;;;;;;0.50;83.60;;;;;;5008190;28;83276;-39
2023/02/01 09:44:32;;;;;;;;;;;0.50;83.80;;;;;;5008110;28;82831;-39
2023/02/01 09:46:59;;;;;;;;;;;0.50;83.80;;;;;;5008317;28;82108;-39
2023/02/01 09:49:30;;;;;;;;;;;0.50;83.70;;;;;;5007972;28;84040;-39
2023/02/01 09:51:55;;;;;;;;;;;0.50;84.10;;;;;;5008036;28;82764;-39
2023/02/01 09:54:41;;;;;;;;;;;0.50;83.40;;;;;;5008077;28;82169;-39
2023/02/01 09:57:19;;;;;;;;;;;0.50;83.70;;;;;;5007780;28;82708;-39
2023/02/01 09:59:51;;;;;;;;;;;0.50;83.70;;;;;;5010569;28;82715;-39
2023/02/01 10:02:21;;;;;;;;;;;0.50;83.60;;;;;;5008027;28;82672;-39
2023/02/01 10:04:48;;;;;;;;;;;0.50;83.70;;;;;;5006819;28;84163;-39
2023/02/01 10:07:33;;;;;;;;;;;0.40;83.90;;;;;;5007640;28;82152;-37
2023/02/01 10:10:01;;;;;;;;;;;0.40;84.00;;;;;;5007575;28;83730;-39
2023/02/01 10:12:32;;;;;;;;;;;0.40;84.30;;;;;;5007654;28;82962;-40
2023/02/01 10:15:16;;;;;;;;;;;0.40;84.40;;;;;;5007727;28;81855;-37
2023/02/01 10:17:50;;;;;;;;;;;0.40;84.20;;;;;;5007940;28;82394;-39
2023/02/01 10:20:38;;;;;;;;;;;0.30;84.30;;;;;;5007439;28;83150;-39
2023/02/01 10:23:22;;;;;;;;;;;0.40;84.20;;;;;;5010526;28;81423;-39
2023/02/01 10:25:53;;;;;;;;;;;0.30;84.50;;;;;;5007261;28;83185;-40
2023/02/01 10:28:21;;;;;;;;;;;0.40;84.60;;;;;;5007762;28;81926;-39
2023/02/01 10:30:47;;;;;;;;;;;0.40;84.60;;;;;;5007008;28;82987;-37
2023/02/01 10:33:18;;;;;;;;;;;0.30;84.60;;;;;;5007478;28;83047;-39
2023/02/01 10:35:44;;;;;;;;;;;0.30;85.00;;;;;;5007305;28;81939;-39
2023/02/01 10:38:20;;;;;;;;;;;0.30;85.20;;;;;;5007215;28;82472;-39
2023/02/01 10:40:46;;;;;;;;;;;0.20;85.40;;;;;;5006979;28;82117;-39
2023/02/01 10:43:12;;;;;;;;;;;0.20;85.40;;;;;;5007354;28;82339;-39
2023/02/01 10:45:39;;;;;;;;;;;0.20;85.50;;;;;;5009824;28;82285;-39
2023/02/01 10:48:05;;;;;;;;;;;0.20;85.60;;;;;;5007576;28;81262;-39
2023/02/01 10:51:09;;;;;;;;;;;0.20;85.60;;;;;;5007571;28;81842;-39
2023/02/01 10:53:43;;;;;;;;;;;0.20;86.00;;;;;;4984393;28;83142;-39
2023/02/01 10:56:09;;;;;;;;;;;0.20;86.00;;;;;;4984266;28;82997;-39
2023/02/01 10:58:37;;;;;;;;;;;0.20;86.20;;;;;;4996042;28;83184;-39
2023/02/01 11:01:03;;;;;;;;;;;0.20;86.30;;;;;;5006839;28;84467;-39
2023/02/01 11:03:42;;;;;;;;;;;0.10;86.20;;;;;;5006800;28;82131;-39
2023/02/01 11:06:10;;;;;;;;;;;0.10;86.30;;;;;;5006970;28;81950;-39
2023/02/01 11:08:50;;;;;;;;;;;0.20;86.40;;;;;;5009074;28;84376;-39
2023/02/01 11:11:15;;;;;;;;;;;0.10;86.40;;;;;;5006868;28;82538;-39
2023/02/01 11:13:41;;;;;;;;;;;0.10;86.50;;;;;;5007033;28;82489;-39
2023/02/01 11:16:10;;;;;;;;;;;0.10;86.50;;;;;;5006479;28;82065;-39
2023/02/01 11:18:37;;;;;;;;;;;0.10;86.50;;;;;;5006609;28;82504;-39
2023/02/01 11:21:03;;;;;;;;;;;0.10;86.60;;;;;;5005069;28;84033;-39
2023/02/01 11:23:30;;;;;;;;;;;0.10;86.60;;;;;;5006784;28;82066;-37
2023/02/01 11:25:57;;;;;;;;;;;0.10;86.60;;;;;;5006654;28;82524;-39
2023/02/01 11:28:25;;;;;;;;;;;0.10;86.70;;;;;;5008994;28;83354;-39
2023/02/01 11:30:53;;;;;;;;;;;0.20;86.80;;;;;;5006590;28;83837;-39
2023/02/01 11:33:20;;;;;;;;;;;0.20;86.80;;;;;;5006412;28;83106;-39
2023/02/01 11:35:47;;;;;;;;;;;0.10;86.70;;;;;;5006273;28;82009;-39
2023/02/01 11:38:21;;;;;;;;;;;0.20;86.80;;;;;;5006774;28;82377;-39
2023/02/01 11:40:46;;;;;;;;;;;0.20;86.80;;;;;;5005994;28;83074;-39
2023/02/01 11:43:28;;;;;;;;;;;0.20;86.80;;;;;;5006216;28;82115;-39
2023/02/01 11:45:57;;;;;;;;;;;0.20;86.80;;;;;;5005615;28;83025;-39
2023/02/01 11:48:24;;;;;;;;;;;0.20;86.80;;;;;;5005954;28;84459;-39
2023/02/01 11:50:49;;;;;;;;;;;0.20;86.80;;;;;;5008949;28;82079;-39
2023/02/01 11:53:15;;;;;;;;;;;0.20;86.90;;;;;;5006100;28;82958;-39
2023/02/01 11:55:49;;;;;;;;;;;0.20;86.80;;;;;;5006233;28;82084;-39
2023/02/01 11:58:35;;;;;;;;;;;0.20;86.70;;;;;;5006013;28;82237;-39
2023/02/01 12:01:19;;;;;;;;;;;0.30;86.80;;;;;;5006297;28;82832;-39
2023/02/01 12:03:45;;;;;;;;;;;0.20;86.80;;;;;;5006556;28;81505;-39
2023/02/01 12:06:17;;;;;;;;;;;0.30;86.90;;;;;;5005856;28;81967;-39
2023/02/01 12:08:58;;;;;;;;;;;0.30;86.80;;;;;;5004286;28;85053;-39
2023/02/01 12:11:27;;;;;;;;;;;0.30;86.90;;;;;;5005225;28;83085;-39
2023/02/01 12:14:00;;;;;;;;;;;0.30;86.80;;;;;;5008584;28;82325;-39
2023/02/01 12:16:31;;;;;;;;;;;0.30;86.80;;;;;;5005682;28;82054;-39
2023/02/01 12:19:15;;;;;;;;;;;0.40;86.50;;;;;;5006089;28;82500;-39
2023/02/01 12:21:52;;;;;;;;;;;0.40;86.60;;;;;;5005925;28;82713;-39
2023/02/01 12:24:24;;;;;;;;;;;0.40;86.60;;;;;;5005972;28;82117;-39
2023/02/01 12:27:12;;;;;;;;;;;0.30;86.70;;;;;;5005966;28;82067;-39
2023/02/01 12:29:47;;;;;;;;;;;0.40;86.80;;;;;;5006071;28;82282;-39
2023/02/01 12:32:41;;;;;;;;;;;0.40;86.70;;;;;;5006217;28;82097;-39
2023/02/01 12:35:20;;;;;;;;;;;0.30;87.50;;;;;;4988885;28;82395;-39
2023/02/01 12:37:50;;;;;;;;;;;0.40;86.80;;;;;;5011311;28;83795;-39
2023/02/01 12:40:16;;;;;;;;;;;0.30;86.80;;;;;;5008933;28;83929;-39
2023/02/01 12:42:44;;;;;;;;;;;0.30;86.90;;;;;;5009153;28;83078;-39
2023/02/01 12:45:12;;;;;;;;;;;0.40;86.90;;;;;;5009095;28;82083;-39
2023/02/01 12:47:41;;;;;;;;;;;0.40;87.00;;;;;;5009486;28;82344;-39
2023/02/01 12:50:16;;;;;;;;;;;0.40;87.00;;;;;;5008772;28;83389;-37
2023/02/01 12:52:49;;;;;;;;;;;0.60;85.80;;;;;;5009030;28;81977;-39
2023/02/01 12:55:22;;;;;;;;;;;0.70;85.40;;;;;;5009528;28;82777;-39
2023/02/01 12:57:53;;;;;;;;;;;0.50;86.10;;;;;;5008551;28;84222;-39
2023/02/01 13:00:30;;;;;;;;;;;0.50;86.70;;;;;;5011367;28;82368;-37
2023/02/01 13:02:58;;;;;;;;;;;0.40;86.90;;;;;;5007943;28;85636;-37
2023/02/01 13:05:42;;;;;;;;;;;0.50;87.00;;;;;;5008876;28;81968;-39
2023/02/01 13:08:11;;;;;;;;;;;0.40;87.00;;;;;;5008654;28;82299;-39
2023/02/01 13:10:43;;;;;;;;;;;0.50;87.50;;;;;;5019300;28;83170;-40
2023/02/01 13:13:16;;;;;;;;;;;0.50;86.10;;;;;;5028926;28;82102;-43
2023/02/01 13:15:57;;;;;;;;;;;0.60;87.00;;;;;;5028639;28;82082;-41
2023/02/01 13:18:26;;;;;;;;;;;0.60;87.20;;;;;;5028406;28;84509;-40
2023/02/01 13:21:13;;;;;;;;;;;0.60;87.20;;;;;;5028969;28;81342;-42
2023/02/01 13:23:40;;;;;;;;;;;0.70;84.60;;;;;;5031521;28;81791;-43
2023/02/01 13:26:06;;;;;;;;;;;0.80;82.10;;;;;;5028713;28;82082;-42
2023/02/01 13:28:42;;;;;;;;;;;0.90;82.70;;;;;;5027939;28;82917;-43
2023/02/01 13:31:07;;;;;;;;;;;0.90;81.40;;;;;;5028437;28;82689;-41
2023/02/01 13:33:51;;;;;;;;;;;1.00;80.70;;;;;;5028474;28;81984;-41
2023/02/01 13:36:23;;;;;;;;;;;1.10;80.10;;;;;;5028645;28;82832;-41
2023/02/01 13:38:48;;;;;;;;;;;1.20;79.50;;;;;;5028216;28;82948;-41
2023/02/01 13:41:14;;;;;;;;;;;;;;;;;;5028452;28;81997;-44
2023/02/01 13:43:41;;;;;;;;;;;;;;;;;;5020737;28;82000;-43
2023/02/01 13:46:07;;;;;;;;;;;;;;;;;;5008486;28;81366;-42
2023/02/01 13:48:33;;;;;;;;;;;;;;;;;;5008287;28;81894;-41
2023/02/01 13:50:59;;;;;;;;;;;;;;;;;;5008337;28;83267;-44
2023/02/01 13:53:25;;;;;;;;;;;;;;;;;;5007818;28;82779;-38
2023/02/01 13:55:51;;;;;;;;;;;;;;;;;;5008328;28;83387;-43
2023/02/01 13:58:16;;;;;;;;;;;;;;;;;;5008169;28;82187;-44
2023/02/01 14:00:44;;;;;;;;;;;;;;;;;;5008344;28;81998;-42
2023/02/01 14:03:11;;;;;;;;;;;;;;;;;;5008159;28;81930;-41
2023/02/01 14:05:37;;;;;;;;;;;;;;;;;;5010347;28;84690;-46
2023/02/01 14:08:03;;;;;;;;;;;;;;;;;;5008068;28;82328;-40
2023/02/01 14:10:29;;;;;;;;;;;;;;;;;;5008440;28;82657;-50
2023/02/01 14:12:55;;;;;;;;;;;;;;;;;;5008270;28;81801;-42
2023/02/01 14:15:22;;;;;;;;;;;;;;;;;;5007824;28;82115;-39
2023/02/01 14:17:48;;;;;;;;;;;;;;;;;;5007099;28;83881;-41
2023/02/01 14:20:14;;;;;;;;;;;;;;;;;;5008050;28;81816;-42
2023/02/01 14:22:40;;;;;;;;;;;;;;;;;;5008110;28;82583;-40
2023/02/01 14:25:05;;;;;;;;;;;;;;;;;;5007633;28;82208;-43
2023/02/01 14:27:32;;;;;;;;;;;;;;;;;;5010628;28;82089;-43
2023/02/01 14:29:59;;;;;;;;;;;;;;;;;;5007682;28;82980;-41
2023/02/01 14:32:28;;;;;;;;;;;;;;;;;;5007564;28;82073;-40
2023/02/01 14:34:56;;;;;;;;;;;;;;;;;;5008157;28;81782;-44
2023/02/01 14:37:21;;;;;;;;;;;;;;;;;;5007190;28;84532;-44
2023/02/01 14:39:47;;;;;;;;;;;;;;;;;;5007497;28;81894;-46
2023/02/01 14:43:51;;;;;;;;;;;1.80;75.50;;;;;;5085343;27;80170;-42
2023/02/01 14:46:16;;;;;;;;;;;2.00;78.20;;;;;;5085163;27;80194;-42
2023/02/01 14:48:44;;;;;;;;;;;1.80;78.00;;;;;;5084826;27;80296;-41
2023/02/01 14:51:11;;;;;;;;;;;1.70;78.00;;;;;;5084544;27;80377;-43
2023/02/01 14:53:37;;;;;;;;;;;1.80;80.60;;;;;;5084810;27;80156;-40
2023/02/01 14:56:13;;;;;;;;;;;1.80;80.00;;;;;;5084668;27;80975;-40
2023/02/01 14:58:58;;;;;;;;;;;1.80;79.30;;;;;;5084446;27;80445;-40
2023/02/01 15:01:31;;;;;;;;;;;1.80;79.70;;;;;;5084381;27;80241;-45
2023/02/01 15:03:56;;;;;;;;;;;1.80;80.50;;;;;;5086595;27;82455;-42
2023/02/01 15:06:24;;;;;;;;;;;1.80;80.70;;;;;;5084647;27;81217;-41